sensor_id;sensor_type;location;lat;lon;timestamp;P1;durP1;ratioP1;P2;durP2;ratioP2
53890;SDS011;41337;51.400;-2.342;2023-08-01T00:03:49;22.08;;;7.03;;
53890;SDS011;41337;51.400;-2.342;2023-08-01T00:13:52;26.10;;;7.75;;
53890;SDS011;41337;51.400;-2.342;2023-08-01T00:18:53;26.25;;;6.95;;
53890;SDS011;41337;51.400;-2.342;2023-08-01T00:23:55;16.70;;;6.65;;
53890;SDS011;41337;51.400;-2.342;2023-08-01T00:28:57;26.98;;;7.43;;
53890;SDS011;41337;51.400;-2.342;2023-08-01T00:33:58;23.48;;;6.47;;
53890;SDS011;41337;51.400;-2.342;2023-08-01T00:39:03;19.67;;;6.10;;
53890;SDS011;41337;51.400;-2.342;2023-08-01T00:44:04;23.80;;;6.22;;
53890;SDS011;41337;51.400;-2.342;2023-08-01T00:49:11;25.88;;;6.07;;
53890;SDS011;41337;51.400;-2.342;2023-08-01T00:59:18;14.82;;;5.20;;
53890;SDS011;41337;51.400;-2.342;2023-08-01T01:04:19;17.55;;;5.45;;
53890;SDS011;41337;51.400;-2.342;2023-08-01T01:09:20;14.15;;;5.20;;
53890;SDS011;41337;51.400;-2.342;2023-08-01T01:14:21;19.73;;;4.55;;
53890;SDS011;41337;51.400;-2.342;2023-08-01T01:19:31;19.60;;;4.68;;
53890;SDS011;41337;51.400;-2.342;2023-08-01T01:24:33;13.55;;;4.38;;
53890;SDS011;41337;51.400;-2.342;2023-08-01T01:29:35;12.60;;;3.80;;
53890;SDS011;41337;51.400;-2.342;2023-08-01T01:34:38;16.63;;;4.80;;
53890;SDS011;41337;51.400;-2.342;2023-08-01T01:39:45;20.83;;;4.47;;
53890;SDS011;41337;51.400;-2.342;2023-08-01T01:44:46;17.85;;;5.13;;
53890;SDS011;41337;51.400;-2.342;2023-08-01T01:49:50;15.68;;;4.68;;
53890;SDS011;41337;51.400;-2.342;2023-08-01T01:54:52;18.73;;;5.25;;
53890;SDS011;41337;51.400;-2.342;2023-08-01T01:59:53;16.73;;;4.90;;
53890;SDS011;41337;51.400;-2.342;2023-08-01T02:10:20;16.88;;;4.53;;
53890;SDS011;41337;51.400;-2.342;2023-08-01T02:15:21;12.35;;;4.30;;
53890;SDS011;41337;51.400;-2.342;2023-08-01T02:20:22;8.88;;;3.30;;
53890;SDS011;41337;51.400;-2.342;2023-08-01T02:25:22;13.43;;;3.97;;
53890;SDS011;41337;51.400;-2.342;2023-08-01T02:30:33;12.45;;;2.92;;
53890;SDS011;41337;51.400;-2.342;2023-08-01T02:35:35;11.38;;;2.88;;
53890;SDS011;41337;51.400;-2.342;2023-08-01T02:40:37;9.40;;;2.75;;
53890;SDS011;41337;51.400;-2.342;2023-08-01T02:45:38;14.73;;;3.20;;
53890;SDS011;41337;51.400;-2.342;2023-08-01T02:50:38;10.93;;;2.85;;
53890;SDS011;41337;51.400;-2.342;2023-08-01T02:55:40;7.95;;;3.20;;
53890;SDS011;41337;51.400;-2.342;2023-08-01T03:00:41;9.70;;;3.33;;
53890;SDS011;41337;51.400;-2.342;2023-08-01T03:05:43;11.57;;;3.10;;
53890;SDS011;41337;51.400;-2.342;2023-08-01T03:10:44;10.13;;;3.78;;
53890;SDS011;41337;51.400;-2.342;2023-08-01T03:15:46;18.10;;;4.30;;
53890;SDS011;41337;51.400;-2.342;2023-08-01T03:20:53;13.60;;;4.25;;
53890;SDS011;41337;51.400;-2.342;2023-08-01T03:25:55;15.07;;;3.42;;
53890;SDS011;41337;51.400;-2.342;2023-08-01T03:30:56;12.43;;;3.83;;
53890;SDS011;41337;51.400;-2.342;2023-08-01T03:35:57;12.82;;;3.58;;
53890;SDS011;41337;51.400;-2.342;2023-08-01T03:40:58;11.80;;;2.75;;
53890;SDS011;41337;51.400;-2.342;2023-08-01T03:46:00;14.48;;;2.92;;
53890;SDS011;41337;51.400;-2.342;2023-08-01T03:51:01;14.63;;;3.28;;
53890;SDS011;41337;51.400;-2.342;2023-08-01T03:56:04;9.68;;;3.03;;
53890;SDS011;41337;51.400;-2.342;2023-08-01T04:01:05;8.82;;;2.30;;
53890;SDS011;41337;51.400;-2.342;2023-08-01T04:06:08;11.35;;;3.00;;
53890;SDS011;41337;51.400;-2.342;2023-08-01T04:11:11;12.02;;;2.58;;
53890;SDS011;41337;51.400;-2.342;2023-08-01T04:16:12;9.32;;;2.80;;
53890;SDS011;41337;51.400;-2.342;2023-08-01T04:21:14;13.13;;;3.45;;
53890;SDS011;41337;51.400;-2.342;2023-08-01T04:26:16;12.52;;;2.50;;
53890;SDS011;41337;51.400;-2.342;2023-08-01T04:31:21;11.10;;;2.28;;
53890;SDS011;41337;51.400;-2.342;2023-08-01T04:36:23;11.52;;;2.53;;
53890;SDS011;41337;51.400;-2.342;2023-08-01T04:41:24;10.55;;;2.35;;
53890;SDS011;41337;51.400;-2.342;2023-08-01T04:46:25;10.00;;;2.00;;
53890;SDS011;41337;51.400;-2.342;2023-08-01T04:51:26;10.68;;;2.35;;
53890;SDS011;41337;51.400;-2.342;2023-08-01T04:56:27;7.15;;;2.35;;
53890;SDS011;41337;51.400;-2.342;2023-08-01T05:01:28;9.00;;;2.58;;
53890;SDS011;41337;51.400;-2.342;2023-08-01T05:06:29;6.28;;;2.05;;
53890;SDS011;41337;51.400;-2.342;2023-08-01T05:11:30;7.95;;;2.47;;
53890;SDS011;41337;51.400;-2.342;2023-08-01T05:16:32;9.63;;;2.17;;
53890;SDS011;41337;51.400;-2.342;2023-08-01T05:21:32;8.52;;;2.45;;
53890;SDS011;41337;51.400;-2.342;2023-08-01T05:26:34;10.80;;;2.55;;
53890;SDS011;41337;51.400;-2.342;2023-08-01T05:31:36;9.45;;;2.83;;
53890;SDS011;41337;51.400;-2.342;2023-08-01T05:36:37;6.20;;;1.95;;
53890;SDS011;41337;51.400;-2.342;2023-08-01T05:41:38;9.20;;;2.38;;
53890;SDS011;41337;51.400;-2.342;2023-08-01T05:46:39;10.00;;;1.83;;
53890;SDS011;41337;51.400;-2.342;2023-08-01T05:51:40;5.63;;;1.98;;
53890;SDS011;41337;51.400;-2.342;2023-08-01T05:56:40;6.10;;;1.40;;
53890;SDS011;41337;51.400;-2.342;2023-08-01T06:01:42;9.82;;;1.77;;
53890;SDS011;41337;51.400;-2.342;2023-08-01T06:06:43;9.00;;;2.03;;
53890;SDS011;41337;51.400;-2.342;2023-08-01T06:11:45;6.82;;;1.80;;
53890;SDS011;41337;51.400;-2.342;2023-08-01T06:16:46;6.93;;;2.55;;
53890;SDS011;41337;51.400;-2.342;2023-08-01T06:21:46;11.32;;;2.42;;
53890;SDS011;41337;51.400;-2.342;2023-08-01T06:26:48;8.95;;;3.20;;
53890;SDS011;41337;51.400;-2.342;2023-08-01T06:31:50;13.30;;;3.67;;
53890;SDS011;41337;51.400;-2.342;2023-08-01T06:36:52;29.38;;;5.45;;
53890;SDS011;41337;51.400;-2.342;2023-08-01T06:41:53;19.80;;;6.18;;
53890;SDS011;41337;51.400;-2.342;2023-08-01T06:47:00;10.00;;;4.70;;
53890;SDS011;41337;51.400;-2.342;2023-08-01T06:52:01;16.75;;;5.03;;
53890;SDS011;41337;51.400;-2.342;2023-08-01T06:57:01;11.40;;;4.55;;
53890;SDS011;41337;51.400;-2.342;2023-08-01T07:02:03;10.40;;;4.15;;
53890;SDS011;41337;51.400;-2.342;2023-08-01T07:07:04;13.27;;;4.78;;
53890;SDS011;41337;51.400;-2.342;2023-08-01T07:12:06;7.55;;;3.58;;
53890;SDS011;41337;51.400;-2.342;2023-08-01T07:17:07;8.38;;;3.10;;
53890;SDS011;41337;51.400;-2.342;2023-08-01T07:22:09;6.47;;;2.53;;
53890;SDS011;41337;51.400;-2.342;2023-08-01T07:27:10;7.65;;;3.10;;
53890;SDS011;41337;51.400;-2.342;2023-08-01T07:32:13;5.18;;;2.75;;
53890;SDS011;41337;51.400;-2.342;2023-08-01T07:37:15;8.70;;;2.97;;
53890;SDS011;41337;51.400;-2.342;2023-08-01T07:42:16;9.65;;;2.70;;
53890;SDS011;41337;51.400;-2.342;2023-08-01T07:47:17;9.25;;;2.45;;
53890;SDS011;41337;51.400;-2.342;2023-08-01T07:52:18;11.05;;;2.10;;
53890;SDS011;41337;51.400;-2.342;2023-08-01T07:57:19;6.45;;;2.05;;
53890;SDS011;41337;51.400;-2.342;2023-08-01T08:02:20;6.18;;;2.05;;
53890;SDS011;41337;51.400;-2.342;2023-08-01T08:07:21;6.72;;;1.92;;
53890;SDS011;41337;51.400;-2.342;2023-08-01T08:12:22;4.63;;;1.98;;
53890;SDS011;41337;51.400;-2.342;2023-08-01T08:17:23;7.78;;;1.50;;
53890;SDS011;41337;51.400;-2.342;2023-08-01T08:22:24;5.88;;;1.73;;
53890;SDS011;41337;51.400;-2.342;2023-08-01T08:27:25;9.27;;;2.28;;
53890;SDS011;41337;51.400;-2.342;2023-08-01T08:32:26;7.80;;;1.98;;
53890;SDS011;41337;51.400;-2.342;2023-08-01T08:37:26;7.00;;;1.85;;
53890;SDS011;41337;51.400;-2.342;2023-08-01T08:42:30;6.50;;;1.63;;
53890;SDS011;41337;51.400;-2.342;2023-08-01T08:47:38;7.00;;;2.22;;
53890;SDS011;41337;51.400;-2.342;2023-08-01T08:52:45;7.82;;;1.63;;
53890;SDS011;41337;51.400;-2.342;2023-08-01T08:57:47;6.20;;;1.48;;
53890;SDS011;41337;51.400;-2.342;2023-08-01T09:02:52;7.47;;;1.50;;
53890;SDS011;41337;51.400;-2.342;2023-08-01T09:07:54;5.82;;;1.60;;
53890;SDS011;41337;51.400;-2.342;2023-08-01T09:12:58;7.68;;;1.60;;
53890;SDS011;41337;51.400;-2.342;2023-08-01T09:17:59;8.30;;;2.15;;
53890;SDS011;41337;51.400;-2.342;2023-08-01T09:23:07;8.40;;;2.08;;
53890;SDS011;41337;51.400;-2.342;2023-08-01T09:28:16;5.60;;;1.75;;
53890;SDS011;41337;51.400;-2.342;2023-08-01T09:33:22;4.32;;;1.45;;
53890;SDS011;41337;51.400;-2.342;2023-08-01T09:38:23;8.05;;;1.40;;
53890;SDS011;41337;51.400;-2.342;2023-08-01T09:43:25;3.25;;;1.30;;
53890;SDS011;41337;51.400;-2.342;2023-08-01T09:48:35;1.60;;;0.88;;
53890;SDS011;41337;51.400;-2.342;2023-08-01T09:58:58;3.35;;;1.52;;
53890;SDS011;41337;51.400;-2.342;2023-08-01T10:04:01;5.55;;;1.27;;
53890;SDS011;41337;51.400;-2.342;2023-08-01T10:09:03;5.45;;;1.40;;
53890;SDS011;41337;51.400;-2.342;2023-08-01T10:14:06;5.30;;;1.23;;
53890;SDS011;41337;51.400;-2.342;2023-08-01T10:19:07;7.53;;;1.38;;
53890;SDS011;41337;51.400;-2.342;2023-08-01T10:24:10;3.33;;;0.95;;
53890;SDS011;41337;51.400;-2.342;2023-08-01T10:29:13;6.50;;;1.35;;
53890;SDS011;41337;51.400;-2.342;2023-08-01T10:34:17;3.05;;;1.23;;
53890;SDS011;41337;51.400;-2.342;2023-08-01T10:39:22;5.05;;;1.00;;
53890;SDS011;41337;51.400;-2.342;2023-08-01T10:44:24;2.85;;;0.98;;
53890;SDS011;41337;51.400;-2.342;2023-08-01T10:54:46;2.72;;;0.98;;
53890;SDS011;41337;51.400;-2.342;2023-08-01T10:59:56;1.98;;;0.70;;
53890;SDS011;41337;51.400;-2.342;2023-08-01T11:10:05;7.00;;;1.00;;
53890;SDS011;41337;51.400;-2.342;2023-08-01T11:20:12;3.13;;;0.70;;
53890;SDS011;41337;51.400;-2.342;2023-08-01T11:30:20;2.22;;;0.65;;
53890;SDS011;41337;51.400;-2.342;2023-08-01T11:45:27;2.40;;;0.80;;
53890;SDS011;41337;51.400;-2.342;2023-08-01T11:50:29;3.85;;;0.80;;
53890;SDS011;41337;51.400;-2.342;2023-08-01T11:55:34;3.20;;;0.80;;
53890;SDS011;41337;51.400;-2.342;2023-08-01T12:00:36;4.75;;;1.15;;
53890;SDS011;41337;51.400;-2.342;2023-08-01T12:05:48;2.90;;;1.00;;
53890;SDS011;41337;51.400;-2.342;2023-08-01T12:10:50;4.55;;;1.10;;
53890;SDS011;41337;51.400;-2.342;2023-08-01T12:15:57;3.65;;;0.75;;
53890;SDS011;41337;51.400;-2.342;2023-08-01T12:20:59;1.80;;;0.60;;
53890;SDS011;41337;51.400;-2.342;2023-08-01T12:26:06;1.92;;;0.80;;
53890;SDS011;41337;51.400;-2.342;2023-08-01T12:31:07;6.25;;;0.77;;
53890;SDS011;41337;51.400;-2.342;2023-08-01T12:36:08;2.90;;;0.60;;
53890;SDS011;41337;51.400;-2.342;2023-08-01T12:41:11;2.95;;;0.70;;
53890;SDS011;41337;51.400;-2.342;2023-08-01T12:46:14;4.45;;;0.57;;
53890;SDS011;41337;51.400;-2.342;2023-08-01T12:51:16;2.63;;;0.50;;
53890;SDS011;41337;51.400;-2.342;2023-08-01T12:56:18;2.25;;;0.63;;
53890;SDS011;41337;51.400;-2.342;2023-08-01T13:01:20;2.50;;;0.50;;
53890;SDS011;41337;51.400;-2.342;2023-08-01T13:06:24;4.32;;;0.52;;
53890;SDS011;41337;51.400;-2.342;2023-08-01T13:16:29;2.47;;;0.70;;
53890;SDS011;41337;51.400;-2.342;2023-08-01T13:26:34;1.85;;;0.70;;
53890;SDS011;41337;51.400;-2.342;2023-08-01T13:41:43;2.47;;;0.50;;
53890;SDS011;41337;51.400;-2.342;2023-08-01T13:46:45;3.10;;;0.68;;
53890;SDS011;41337;51.400;-2.342;2023-08-01T14:01:50;1.05;;;0.50;;
53890;SDS011;41337;51.400;-2.342;2023-08-01T14:17:12;2.80;;;0.60;;
53890;SDS011;41337;51.400;-2.342;2023-08-01T14:22:14;2.72;;;0.80;;
53890;SDS011;41337;51.400;-2.342;2023-08-01T14:27:17;1.55;;;0.50;;
53890;SDS011;41337;51.400;-2.342;2023-08-01T14:32:19;1.67;;;0.85;;
53890;SDS011;41337;51.400;-2.342;2023-08-01T14:37:23;2.25;;;0.50;;
53890;SDS011;41337;51.400;-2.342;2023-08-01T14:52:55;2.42;;;0.60;;
53890;SDS011;41337;51.400;-2.342;2023-08-01T14:57:56;1.67;;;0.50;;
53890;SDS011;41337;51.400;-2.342;2023-08-01T15:02:57;3.00;;;0.40;;
53890;SDS011;41337;51.400;-2.342;2023-08-01T15:07:59;4.93;;;1.05;;
53890;SDS011;41337;51.400;-2.342;2023-08-01T15:13:00;2.90;;;0.90;;
53890;SDS011;41337;51.400;-2.342;2023-08-01T15:18:03;2.30;;;0.80;;
53890;SDS011;41337;51.400;-2.342;2023-08-01T15:23:05;2.33;;;0.98;;
53890;SDS011;41337;51.400;-2.342;2023-08-01T15:28:07;3.67;;;1.00;;
53890;SDS011;41337;51.400;-2.342;2023-08-01T15:33:16;2.83;;;0.73;;
53890;SDS011;41337;51.400;-2.342;2023-08-01T15:38:17;2.92;;;1.02;;
53890;SDS011;41337;51.400;-2.342;2023-08-01T15:43:18;2.92;;;0.90;;
53890;SDS011;41337;51.400;-2.342;2023-08-01T15:48:21;6.13;;;0.85;;
53890;SDS011;41337;51.400;-2.342;2023-08-01T15:53:22;5.35;;;1.10;;
53890;SDS011;41337;51.400;-2.342;2023-08-01T15:58:24;2.13;;;0.70;;
53890;SDS011;41337;51.400;-2.342;2023-08-01T16:08:47;4.13;;;1.08;;
53890;SDS011;41337;51.400;-2.342;2023-08-01T16:13:49;2.25;;;0.80;;
53890;SDS011;41337;51.400;-2.342;2023-08-01T16:24:16;3.88;;;1.30;;
53890;SDS011;41337;51.400;-2.342;2023-08-01T16:44:53;3.60;;;1.00;;
53890;SDS011;41337;51.400;-2.342;2023-08-01T16:55:00;5.05;;;1.13;;
53890;SDS011;41337;51.400;-2.342;2023-08-01T17:00:01;3.85;;;0.82;;
53890;SDS011;41337;51.400;-2.342;2023-08-01T17:05:02;4.68;;;1.05;;
53890;SDS011;41337;51.400;-2.342;2023-08-01T17:10:04;4.18;;;1.13;;
53890;SDS011;41337;51.400;-2.342;2023-08-01T17:20:27;4.90;;;1.33;;
53890;SDS011;41337;51.400;-2.342;2023-08-01T17:35:32;6.40;;;1.35;;
53890;SDS011;41337;51.400;-2.342;2023-08-01T17:45:48;5.32;;;1.40;;
53890;SDS011;41337;51.400;-2.342;2023-08-01T17:50:49;2.33;;;0.98;;
53890;SDS011;41337;51.400;-2.342;2023-08-01T18:01:01;4.10;;;1.00;;
53890;SDS011;41337;51.400;-2.342;2023-08-01T18:16:24;6.72;;;1.15;;
53890;SDS011;41337;51.400;-2.342;2023-08-01T18:21:26;5.35;;;1.25;;
53890;SDS011;41337;51.400;-2.342;2023-08-01T18:26:28;3.17;;;0.80;;
53890;SDS011;41337;51.400;-2.342;2023-08-01T18:36:30;4.32;;;1.13;;
53890;SDS011;41337;51.400;-2.342;2023-08-01T18:41:31;3.47;;;1.13;;
53890;SDS011;41337;51.400;-2.342;2023-08-01T18:56:38;3.97;;;1.17;;
53890;SDS011;41337;51.400;-2.342;2023-08-01T19:01:40;5.20;;;1.30;;
53890;SDS011;41337;51.400;-2.342;2023-08-01T19:06:41;3.40;;;1.70;;
53890;SDS011;41337;51.400;-2.342;2023-08-01T19:11:42;3.67;;;1.80;;
53890;SDS011;41337;51.400;-2.342;2023-08-01T19:32:26;5.93;;;1.70;;
53890;SDS011;41337;51.400;-2.342;2023-08-01T19:42:31;7.18;;;1.63;;
53890;SDS011;41337;51.400;-2.342;2023-08-01T19:52:40;7.18;;;2.20;;
53890;SDS011;41337;51.400;-2.342;2023-08-01T20:02:49;7.20;;;1.70;;
53890;SDS011;41337;51.400;-2.342;2023-08-01T20:18:36;9.20;;;2.78;;
53890;SDS011;41337;51.400;-2.342;2023-08-01T20:28:44;7.22;;;2.03;;
53890;SDS011;41337;51.400;-2.342;2023-08-01T20:33:48;9.27;;;2.15;;
53890;SDS011;41337;51.400;-2.342;2023-08-01T20:38:50;7.78;;;1.75;;
53890;SDS011;41337;51.400;-2.342;2023-08-01T20:43:53;9.70;;;2.50;;
53890;SDS011;41337;51.400;-2.342;2023-08-01T20:48:55;10.32;;;2.55;;
53890;SDS011;41337;51.400;-2.342;2023-08-01T20:58:58;6.70;;;2.70;;
53890;SDS011;41337;51.400;-2.342;2023-08-01T21:09:07;11.70;;;2.63;;
53890;SDS011;41337;51.400;-2.342;2023-08-01T21:14:08;12.18;;;2.80;;
53890;SDS011;41337;51.400;-2.342;2023-08-01T21:19:09;7.05;;;2.47;;
53890;SDS011;41337;51.400;-2.342;2023-08-01T21:29:13;13.85;;;3.28;;
53890;SDS011;41337;51.400;-2.342;2023-08-01T21:49:39;8.93;;;2.75;;
53890;SDS011;41337;51.400;-2.342;2023-08-01T22:04:51;7.50;;;2.22;;
53890;SDS011;41337;51.400;-2.342;2023-08-01T22:09:55;8.65;;;2.55;;
53890;SDS011;41337;51.400;-2.342;2023-08-01T22:30:28;4.78;;;2.10;;
53890;SDS011;41337;51.400;-2.342;2023-08-01T22:40:33;6.50;;;1.90;;
53890;SDS011;41337;51.400;-2.342;2023-08-01T22:45:35;6.25;;;2.17;;
53890;SDS011;41337;51.400;-2.342;2023-08-01T22:50:40;5.40;;;2.03;;
53890;SDS011;41337;51.400;-2.342;2023-08-01T22:55:43;7.38;;;2.22;;
53890;SDS011;41337;51.400;-2.342;2023-08-01T23:00:47;5.75;;;2.25;;
53890;SDS011;41337;51.400;-2.342;2023-08-01T23:21:33;6.13;;;2.28;;
53890;SDS011;41337;51.400;-2.342;2023-08-01T23:36:47;7.13;;;2.15;;
